Main page
METAR-TAF:

METAR-TAF

Airports :

Paso de los Libres Airport

Paso de los Libres, Argentina

latitude: 29-41S, longitude: 057-09W, elevation: 69 m

Current weather observation

The report was made 55 minutes ago, at 10:00 UTC
Wind 3 kt from the North
Temperature 7°C
Humidity 100%
Pressure 1020 hPa
Visibility: 8000 m

METAR: SARL 121000Z 36003KT 8000 NSC 07/07 Q1020

Time: 07:55 (10:55 UTC)


TAF: missing

Weather observations and forecasts of more than 4000 airports (METAR and TAF reports).

The available stations are represented by yellow and red dots on the map.

Hover mouse over dot to see the name of the station.

Then click to see weather observations and forecasts.

To change the map : click on the green buttons with a black cross to zoom in, on the green button with a dash to zoom out, or on the green arrows for adjacent maps.


METAR-TAF: